Time;durP1;ratioP1;P1;durP2;ratioP2;P2;SDS_P1;SDS_P2;PMS_P1;PMS_P2;Temp;Humidity;BMP_temperature;BMP_pressure;BME280_temperature;BME280_humidity;BME280_pressure;Samples;Min_cycle;Max_cycle;Signal;HPM_P1;HPM_P2
2022/10/17 00:01:14;;;;;;;14.40;6.95;;;;;;;26.42;35.41;100731.78;5036603;28;20053;-85
2022/10/17 00:03:45;;;;;;;19.52;7.20;;;;;;;26.30;35.86;100740.19;5048879;28;20047;-85
2022/10/17 00:06:15;;;;;;;14.38;6.60;;;;;;;26.16;36.07;100737.16;5048026;28;20044;-84
2022/10/17 00:08:45;;;;;;;14.00;6.25;;;;;;;26.08;36.80;100743.59;5041195;28;20045;-81
2022/10/17 00:11:17;;;;;;;11.55;6.55;;;;;;;25.98;36.55;100741.34;5041187;28;20148;-83
2022/10/17 00:13:45;;;;;;;12.30;6.88;;;;;;;25.87;36.34;100744.34;5040757;28;20049;-82
2022/10/17 00:16:15;;;;;;;13.98;7.20;;;;;;;25.67;36.73;100748.50;5040904;28;20060;-76
2022/10/17 00:18:45;;;;;;;13.02;6.68;;;;;;;25.55;36.88;100748.91;5040868;28;20045;-80
2022/10/17 00:21:17;;;;;;;15.70;6.68;;;;;;;25.41;37.26;100751.16;5042121;28;20056;-75
2022/10/17 00:23:46;;;;;;;15.95;7.15;;;;;;;25.29;37.66;100758.56;5047696;28;20351;-75
2022/10/17 00:26:15;;;;;;;12.20;6.60;;;;;;;25.18;38.54;100763.31;5044547;28;20037;-74
2022/10/17 00:28:46;;;;;;;16.00;7.38;;;;;;;25.05;38.63;100769.88;5038870;28;20503;-74
2022/10/17 00:31:15;;;;;;;12.13;7.35;;;;;;;24.84;39.52;100764.31;5041987;28;20045;-75
2022/10/17 00:33:45;;;;;;;16.73;7.63;;;;;;;24.64;40.09;100764.88;5041383;28;20482;-74
2022/10/17 00:36:15;;;;;;;18.60;7.13;;;;;;;24.48;39.51;100773.31;5039790;28;20041;-74
2022/10/17 00:38:45;;;;;;;19.42;7.45;;;;;;;24.36;40.09;100775.34;5041479;28;21010;-72
2022/10/17 00:41:24;;;;;;;12.52;7.18;;;;;;;24.17;40.47;100779.41;5025063;28;20495;-73
2022/10/17 00:43:55;;;;;;;11.88;7.05;;;;;;;23.97;40.92;100780.78;5041499;28;20063;-75
2022/10/17 00:46:28;;;;;;;15.25;7.82;;;;;;;23.79;41.91;100783.88;5037897;28;20045;-71
2022/10/17 00:49:03;;;;;;;13.68;7.43;;;;;;;23.62;41.88;100787.78;5035375;28;20050;-72
2022/10/17 00:51:37;;;;;;;14.30;7.25;;;;;;;23.43;42.36;100791.75;5040185;28;21252;-71
2022/10/17 00:54:07;;;;;;;14.80;7.45;;;;;;;23.30;42.76;100790.31;5039491;28;20144;-70
2022/10/17 00:56:36;;;;;;;14.68;7.63;;;;;;;23.19;42.60;100803.72;5041541;28;20045;-73
2022/10/17 00:59:13;;;;;;;20.00;7.68;;;;;;;23.02;43.49;100814.66;5043961;28;20052;-72
2022/10/17 01:01:44;;;;;;;13.68;7.13;;;;;;;22.89;43.66;100813.16;5041809;28;20053;-73
2022/10/17 01:04:15;;;;;;;15.23;8.18;;;;;;;22.74;43.92;100811.66;5038515;28;20826;-76
2022/10/17 01:06:44;;;;;;;12.65;7.05;;;;;;;22.64;44.38;100818.03;5040281;28;20052;-75
2022/10/17 01:09:13;;;;;;;16.35;7.35;;;;;;;22.44;44.98;100818.41;5042408;28;20462;-72
2022/10/17 01:11:51;;;;;;;14.15;8.07;;;;;;;22.23;45.50;100825.81;5035804;28;20128;-76
2022/10/17 01:14:29;;;;;;;17.58;8.50;;;;;;;22.11;45.92;100818.09;5050871;28;20041;-73
2022/10/17 01:17:07;;;;;;;15.25;8.27;;;;;;;21.98;45.88;100817.41;5048226;28;20045;-73
2022/10/17 01:20:00;;;;;;;13.77;7.70;;;;;;;21.78;46.70;100830.91;5032283;28;20052;-74
2022/10/17 01:22:35;;;;;;;15.25;7.80;;;;;;;21.65;47.25;100840.78;5041626;28;20560;-71
2022/10/17 01:25:29;;;;;;;16.23;8.55;;;;;;;21.46;47.56;100834.00;5043070;28;20053;-70
2022/10/17 01:28:11;;;;;;;14.65;7.65;;;;;;;21.38;47.76;100839.38;5040139;28;20076;-69
2022/10/17 01:31:08;;;;;;;15.73;7.57;;;;;;;21.33;47.97;100838.56;5039923;28;20080;-71
2022/10/17 01:33:52;;;;;;;15.52;8.90;;;;;;;21.26;48.07;100842.16;5042199;28;20042;-70
2022/10/17 01:36:36;;;;;;;13.40;8.15;;;;;;;21.21;48.44;100851.88;5039079;28;20045;-71
2022/10/17 01:39:14;;;;;;;18.08;8.35;;;;;;;21.13;48.77;100867.75;5035580;28;20057;-70
2022/10/17 01:41:47;;;;;;;14.45;7.65;;;;;;;21.05;48.73;100875.75;5042009;28;20140;-70
2022/10/17 01:44:20;;;;;;;17.08;8.45;;;;;;;21.00;49.05;100877.53;5038558;28;20088;-71
2022/10/17 01:46:53;;;;;;;13.35;7.93;;;;;;;20.97;49.59;100882.84;5038400;28;20056;-69
2022/10/17 01:49:27;;;;;;;16.77;8.23;;;;;;;20.91;50.07;100881.19;5040504;28;20545;-69
2022/10/17 01:52:01;;;;;;;15.02;8.20;;;;;;;20.83;49.74;100892.66;5040610;28;20486;-74
2022/10/17 01:54:34;;;;;;;21.27;8.15;;;;;;;20.73;50.33;100891.91;5044312;28;20048;-73
2022/10/17 01:57:15;;;;;;;13.50;6.65;;;;;;;20.67;50.47;100903.31;5042650;28;20139;-72
2022/10/17 01:59:48;;;;;;;18.08;8.52;;;;;;;20.56;50.94;100902.56;5040824;28;20049;-72
2022/10/17 02:02:19;;;;;;;16.02;7.13;;;;;;;20.50;50.64;100902.56;5042362;28;20494;-73
2022/10/17 02:04:51;;;;;;;16.97;7.27;;;;;;;20.45;51.29;100907.88;5034672;28;20075;-70
2022/10/17 02:07:20;;;;;;;15.48;7.95;;;;;;;20.39;50.96;100910.56;5040962;28;20873;-70
2022/10/17 02:09:48;;;;;;;17.65;7.68;;;;;;;20.35;51.16;100914.09;5040110;28;20057;-72
2022/10/17 02:12:46;;;;;;;14.93;8.25;;;;;;;20.32;51.30;100916.75;5043978;28;20048;-72
2022/10/17 02:15:37;;;;;;;18.00;8.00;;;;;;;20.21;51.87;100919.47;5039776;28;20041;-71
2022/10/17 02:18:21;;;;;;;18.20;7.60;;;;;;;20.06;52.87;100924.81;5036345;28;20483;-69
2022/10/17 02:20:55;;;;;;;17.17;7.22;;;;;;;19.95;53.17;100934.53;5039734;28;20053;-69
2022/10/17 02:23:35;;;;;;;14.35;7.32;;;;;;;19.86;53.35;100944.22;5042248;28;20047;-71
2022/10/17 02:26:10;;;;;;;15.23;6.88;;;;;;;19.77;53.85;100941.66;5040499;28;20057;-69
2022/10/17 02:28:46;;;;;;;15.95;6.20;;;;;;;19.69;54.29;100943.44;5036918;28;20427;-71
2022/10/17 02:31:18;;;;;;;12.75;5.20;;;;;;;19.61;54.21;100947.84;5037900;28;20045;-71
2022/10/17 02:33:52;;;;;;;15.13;6.25;;;;;;;19.53;54.61;100950.47;5039810;28;20056;-69
2022/10/17 02:36:25;;;;;;;14.95;6.28;;;;;;;19.45;54.91;100953.13;5038218;28;20132;-70
2022/10/17 02:38:55;;;;;;;13.23;6.45;;;;;;;19.37;55.86;100957.53;5041219;28;20819;-70
2022/10/17 02:41:25;;;;;;;13.43;7.63;;;;;;;19.32;55.68;100961.91;5037098;28;20097;-68
2022/10/17 02:43:54;;;;;;;15.52;7.00;;;;;;;19.23;55.93;100968.06;5044459;28;20392;-67
2022/10/17 02:46:27;;;;;;;14.73;6.55;;;;;;;19.16;56.59;100965.47;5044873;28;20041;-68
2022/10/17 02:49:02;;;;;;;18.02;6.95;;;;;;;19.10;57.34;100978.59;5044106;28;20088;-68
2022/10/17 02:51:43;;;;;;;14.35;6.03;;;;;;;18.99;57.21;100984.75;5045530;28;20055;-67
2022/10/17 02:54:18;;;;;;;13.93;6.10;;;;;;;18.95;57.94;100988.25;5041261;28;20045;-70
2022/10/17 02:56:54;;;;;;;14.60;6.30;;;;;;;18.90;57.71;100981.22;5044444;28;20060;-69
2022/10/17 02:59:26;;;;;;;17.95;7.13;;;;;;;18.90;58.21;100995.25;5043102;27;20521;-69
2022/10/17 03:01:54;;;;;;;;;;;;;;;18.88;58.16;100997.00;5043538;28;20107;-68
2022/10/17 03:04:24;;;;;;;10.73;6.43;;;;;;;18.87;58.53;100996.97;5045728;28;20173;-70
2022/10/17 03:06:53;;;;;;;15.05;6.65;;;;;;;18.86;57.65;101003.97;5044107;28;20415;-69
2022/10/17 03:09:21;;;;;;;16.48;7.00;;;;;;;18.82;57.78;101007.47;5038213;28;20103;-69
2022/10/17 03:11:50;;;;;;;13.13;6.25;;;;;;;18.77;58.61;101006.59;5044346;28;20053;-69
2022/10/17 03:14:19;;;;;;;11.98;6.65;;;;;;;18.75;58.47;101010.94;5045516;28;20518;-70
2022/10/17 03:16:47;;;;;;;13.77;6.53;;;;;;;18.70;58.46;101018.81;5040785;28;20072;-68
2022/10/17 03:19:16;;;;;;;10.57;6.15;;;;;;;18.67;58.74;101023.16;5033761;28;20061;-69
2022/10/17 03:21:46;;;;;;;10.60;5.65;;;;;;;18.59;59.04;101020.53;5043470;28;20049;-68
2022/10/17 03:24:14;;;;;;;11.02;6.38;;;;;;;18.54;59.49;101023.16;5040768;28;20412;-69
2022/10/17 03:26:43;;;;;;;14.77;5.80;;;;;;;18.51;59.78;101028.41;5040966;28;20434;-69
2022/10/17 03:29:12;;;;;;;15.13;6.75;;;;;;;18.45;61.31;101033.63;5038514;28;20042;-69
2022/10/17 03:31:40;;;;;;;19.48;6.35;;;;;;;18.38;61.56;101037.13;5047343;28;20616;-68
2022/10/17 03:34:09;;;;;;;11.43;6.03;;;;;;;18.34;60.29;101035.34;5048115;28;20048;-68
2022/10/17 03:36:37;;;;;;;19.65;6.15;;;;;;;18.29;60.82;101048.44;5047026;28;20057;-68
2022/10/17 03:39:08;;;;;;;10.57;5.10;;;;;;;18.25;60.97;101053.66;5045312;28;21041;-68
2022/10/17 03:41:36;;;;;;;11.75;5.97;;;;;;;18.20;60.50;101059.75;5039191;28;20049;-68
2022/10/17 03:44:05;;;;;;;19.10;6.43;;;;;;;18.15;60.69;101052.78;5038642;28;20053;-68
2022/10/17 03:46:34;;;;;;;13.07;5.20;;;;;;;18.10;61.11;101052.75;5039986;28;20091;-70
2022/10/17 03:49:03;;;;;;;9.63;4.97;;;;;;;18.07;61.17;101057.09;5042575;28;20053;-69
2022/10/17 03:51:33;;;;;;;12.70;5.95;;;;;;;18.03;61.85;101058.84;5038539;28;20432;-70
2022/10/17 03:54:02;;;;;;;15.60;5.88;;;;;;;17.99;61.54;101059.69;5043569;28;20055;-71
2022/10/17 03:56:32;;;;;;;15.02;5.72;;;;;;;17.92;61.76;101060.53;5040819;28;20045;-71
2022/10/17 03:59:01;;;;;;;14.00;5.55;;;;;;;17.88;62.02;101066.63;5046102;28;20045;-71
2022/10/17 04:01:29;;;;;;;15.88;5.82;;;;;;;17.84;62.58;101068.34;5036686;28;20404;-71
2022/10/17 04:03:58;;;;;;;13.88;5.90;;;;;;;17.79;62.70;101073.53;5046977;28;20049;-71
2022/10/17 04:06:27;;;;;;;10.45;5.15;;;;;;;17.75;63.10;101077.03;5044720;28;20119;-71
2022/10/17 04:08:56;;;;;;;11.40;5.05;;;;;;;17.71;63.37;101080.47;5041605;28;20045;-71
2022/10/17 04:11:24;;;;;;;8.90;5.47;;;;;;;17.64;63.13;101081.31;5044991;28;20045;-71
2022/10/17 04:13:58;;;;;;;11.38;5.50;;;;;;;17.58;64.02;101076.03;5046347;28;20305;-72
2022/10/17 04:16:26;;;;;;;16.40;4.97;;;;;;;17.52;64.15;101082.13;5050643;28;20441;-71
2022/10/17 04:18:56;;;;;;;10.95;5.32;;;;;;;17.48;63.89;101087.34;5038351;28;20083;-71
2022/10/17 04:21:27;;;;;;;11.65;5.20;;;;;;;17.42;64.44;101089.91;5039713;28;20088;-71
2022/10/17 04:23:56;;;;;;;12.98;4.68;;;;;;;17.36;64.70;101089.00;5043686;28;20111;-71
2022/10/17 04:26:24;;;;;;;12.00;5.53;;;;;;;17.30;65.41;101088.94;5042077;28;20487;-71
2022/10/17 04:28:55;;;;;;;9.70;5.28;;;;;;;17.27;65.62;101094.16;5041100;28;20057;-72
2022/10/17 04:31:24;;;;;;;12.02;5.07;;;;;;;17.23;65.66;101094.13;5041004;28;20048;-70
2022/10/17 04:33:53;;;;;;;14.52;4.45;;;;;;;17.17;65.40;101092.31;5040213;28;20049;-71
2022/10/17 04:36:22;;;;;;;8.45;4.57;;;;;;;17.11;66.12;101090.56;5042649;28;20049;-71
2022/10/17 04:38:50;;;;;;;10.63;5.40;;;;;;;17.06;65.71;101094.84;5046513;28;20045;-71
2022/10/17 04:41:20;;;;;;;9.57;4.95;;;;;;;17.01;66.45;101099.16;5043514;28;20048;-71
2022/10/17 04:43:48;;;;;;;12.80;5.18;;;;;;;16.96;67.13;101093.91;5040749;28;20107;-71
2022/10/17 04:46:18;;;;;;;11.13;4.57;;;;;;;16.93;67.20;101103.47;5044308;28;20048;-71
2022/10/17 04:48:47;;;;;;;9.10;4.72;;;;;;;16.88;67.33;101099.91;5038221;28;20057;-71
2022/10/17 04:51:18;;;;;;;9.20;4.18;;;;;;;16.84;67.84;101099.03;5041492;28;20742;-71
2022/10/17 04:53:46;;;;;;;10.23;4.30;;;;;;;16.81;68.29;101101.59;5036544;28;20061;-70
2022/10/17 04:56:18;;;;;;;10.32;4.68;;;;;;;16.76;67.74;101105.88;5040672;28;20072;-71
2022/10/17 04:58:47;;;;;;;10.02;4.85;;;;;;;16.71;67.92;101105.81;5034496;28;20562;-70
2022/10/17 05:01:19;;;;;;;11.60;4.55;;;;;;;16.68;68.08;101102.34;5018711;28;20421;-71
2022/10/17 05:03:48;;;;;;;10.57;4.45;;;;;;;16.63;68.21;101102.28;5023853;28;20045;-71
2022/10/17 05:06:18;;;;;;;11.88;4.78;;;;;;;16.60;68.95;101114.44;5016163;28;20054;-71
2022/10/17 05:08:47;;;;;;;13.75;4.68;;;;;;;16.55;69.15;101114.38;5015286;28;20053;-71
2022/10/17 05:11:20;;;;;;;10.65;3.83;;;;;;;16.50;69.95;101114.31;5015366;28;20056;-71
2022/10/17 05:13:52;;;;;;;12.43;4.97;;;;;;;16.47;69.47;101116.91;5017447;28;20042;-71
2022/10/17 05:16:22;;;;;;;13.67;5.20;;;;;;;16.44;69.93;101121.22;5026320;28;20133;-71
2022/10/17 05:18:51;;;;;;;8.55;4.15;;;;;;;16.40;70.26;101128.16;5023133;28;20309;-71
2022/10/17 05:21:20;;;;;;;9.73;3.97;;;;;;;16.35;70.27;101124.59;5015419;28;20547;-71
2022/10/17 05:23:56;;;;;;;10.35;4.68;;;;;;;16.29;70.10;101135.84;5022778;28;20053;-71
2022/10/17 05:26:28;;;;;;;9.50;4.43;;;;;;;16.27;71.14;101132.34;5021084;28;20426;-70
2022/10/17 05:28:59;;;;;;;9.68;4.50;;;;;;;16.23;71.20;101130.53;5020834;28;20052;-71
2022/10/17 05:31:29;;;;;;;9.52;4.28;;;;;;;16.20;71.23;101135.75;5021529;28;20042;-70
2022/10/17 05:34:01;;;;;;;9.40;3.67;;;;;;;16.15;71.91;101131.31;5020199;28;20043;-70
2022/10/17 05:36:29;;;;;;;12.18;4.88;;;;;;;16.12;71.82;101132.16;5023095;28;20514;-70
2022/10/17 05:38:58;;;;;;;14.50;5.32;;;;;;;16.11;71.69;101140.84;5016732;28;20049;-70
2022/10/17 05:41:27;;;;;;;8.95;4.32;;;;;;;16.08;72.56;101135.56;5026138;28;20496;-70
2022/10/17 05:43:55;;;;;;;12.65;5.22;;;;;;;16.05;73.07;101141.63;5022072;28;20073;-71
2022/10/17 05:46:25;;;;;;;10.52;4.57;;;;;;;16.02;72.50;101141.59;5028715;28;20049;-70
2022/10/17 05:48:55;;;;;;;8.43;3.88;;;;;;;15.99;72.42;101145.88;5019507;28;20132;-70
2022/10/17 05:51:24;;;;;;;8.73;4.10;;;;;;;15.96;73.04;101145.84;5024591;28;20080;-71
2022/10/17 05:53:53;;;;;;;8.65;4.38;;;;;;;15.94;73.41;101147.56;5020367;28;20063;-71
2022/10/17 05:56:21;;;;;;;11.25;3.50;;;;;;;15.90;73.67;101152.75;5020909;28;20484;-70
2022/10/17 05:58:50;;;;;;;10.60;3.97;;;;;;;15.88;73.89;101158.81;5031823;27;20049;-70
2022/10/17 06:01:19;;;;;;;7.45;3.80;;;;;;;15.88;73.63;101153.59;5041930;28;20048;-70
2022/10/17 06:03:47;;;;;;;11.73;4.55;;;;;;;15.85;73.50;101150.91;5043659;28;20048;-70
2022/10/17 06:06:19;;;;;;;12.27;4.18;;;;;;;15.82;73.83;101158.72;5050808;28;20041;-70
2022/10/17 06:08:48;;;;;;;8.07;3.83;;;;;;;15.80;74.26;101155.19;5043545;28;20044;-70
2022/10/17 06:11:16;;;;;;;8.50;3.90;;;;;;;15.79;75.10;101158.69;5035896;28;20052;-70
2022/10/17 06:13:45;;;;;;;11.63;4.93;;;;;;;15.76;74.00;101153.41;5045162;28;20052;-70
2022/10/17 06:16:13;;;;;;;7.93;4.28;;;;;;;15.73;74.36;101158.56;5036034;28;20048;-70
2022/10/17 06:18:42;;;;;;;10.50;4.43;;;;;;;15.70;73.39;101155.06;5037753;28;20103;-70
2022/10/17 06:21:12;;;;;;;11.07;4.50;;;;;;;15.68;73.90;101156.72;5038613;28;20069;-70
2022/10/17 06:23:42;;;;;;;10.00;4.53;;;;;;;15.67;74.11;101164.56;5040939;28;20158;-69
2022/10/17 06:26:11;;;;;;;10.60;4.57;;;;;;;15.64;75.13;101165.38;5036257;28;20448;-70
2022/10/17 06:28:40;;;;;;;10.35;4.63;;;;;;;15.60;75.00;101157.47;5039401;28;20965;-70
2022/10/17 06:31:10;;;;;;;12.60;4.03;;;;;;;15.57;74.34;101158.31;5041338;28;20143;-70
2022/10/17 06:33:39;;;;;;;8.50;4.25;;;;;;;15.56;74.59;101155.69;5036506;28;20056;-70
2022/10/17 06:36:10;;;;;;;10.52;4.57;;;;;;;15.53;75.14;101158.22;5045661;28;20663;-70
2022/10/17 06:38:39;;;;;;;13.57;4.60;;;;;;;15.49;73.99;101162.53;5044205;28;20041;-69
2022/10/17 06:41:15;;;;;;;9.93;3.90;;;;;;;15.46;74.60;101167.69;5042807;28;20679;-69
2022/10/17 06:43:45;;;;;;;10.43;3.90;;;;;;;15.40;74.69;101178.03;5040986;28;20474;-69
2022/10/17 06:46:15;;;;;;;10.95;3.80;;;;;;;15.34;74.53;101170.09;5039303;28;20044;-69
2022/10/17 06:48:44;;;;;;;12.65;4.30;;;;;;;15.29;74.55;101181.31;5041187;28;20040;-69
2022/10/17 06:51:12;;;;;;;12.13;4.18;;;;;;;15.26;74.43;101176.06;5037324;28;20058;-69
2022/10/17 06:53:41;;;;;;;10.32;4.18;;;;;;;15.22;74.73;101176.88;5037300;28;20107;-69
2022/10/17 06:56:12;;;;;;;9.18;4.55;;;;;;;15.19;74.79;101179.44;5041132;28;20053;-69
2022/10/17 06:58:41;;;;;;;13.13;5.03;;;;;;;15.18;75.05;101185.47;5044268;28;20451;-70
2022/10/17 07:01:11;;;;;;;15.25;4.55;;;;;;;15.17;75.16;101182.88;5044683;28;20053;-70
2022/10/17 07:03:42;;;;;;;14.45;4.38;;;;;;;15.15;74.83;101190.66;5044467;28;20049;-70
2022/10/17 07:06:11;;;;;;;10.63;3.88;;;;;;;15.12;74.61;101180.19;5044879;28;20081;-71
2022/10/17 07:08:43;;;;;;;11.10;4.15;;;;;;;15.10;75.68;101179.28;5045333;28;20049;-70
2022/10/17 07:11:16;;;;;;;8.88;4.03;;;;;;;15.07;75.41;101179.19;5045011;28;20561;-70
2022/10/17 07:13:45;;;;;;;10.45;4.35;;;;;;;15.04;75.43;101184.38;5042954;28;20142;-70
2022/10/17 07:16:14;;;;;;;11.18;4.10;;;;;;;14.99;76.02;101183.41;5042323;28;20052;-70
2022/10/17 07:18:43;;;;;;;8.00;3.45;;;;;;;14.94;76.19;101190.28;5037212;28;20042;-70
2022/10/17 07:21:12;;;;;;;9.65;4.47;;;;;;;14.91;76.50;101190.19;5044594;28;20127;-70
2022/10/17 07:23:40;;;;;;;11.43;4.22;;;;;;;14.86;76.66;101179.69;5044847;28;20056;-71
2022/10/17 07:26:10;;;;;;;14.90;4.72;;;;;;;14.83;76.38;101184.84;5041089;28;20052;-70
2022/10/17 07:28:42;;;;;;;10.45;4.43;;;;;;;14.79;77.07;101181.28;5046784;28;20047;-70
2022/10/17 07:31:13;;;;;;;8.27;3.22;;;;;;;14.77;77.74;101183.00;5038987;28;20057;-70
2022/10/17 07:33:42;;;;;;;14.27;4.90;;;;;;;14.74;77.66;101187.28;5048844;28;20041;-70
2022/10/17 07:36:11;;;;;;;11.90;4.43;;;;;;;14.72;77.04;101188.97;5041855;28;20072;-70
2022/10/17 07:38:40;;;;;;;15.68;4.45;;;;;;;14.66;77.22;101185.41;5043673;28;20103;-70
2022/10/17 07:41:10;;;;;;;11.27;4.15;;;;;;;14.65;78.20;101199.25;5046729;28;20048;-70
2022/10/17 07:43:41;;;;;;;7.07;4.07;;;;;;;14.63;77.24;101194.88;5041338;28;20494;-70
2022/10/17 07:46:11;;;;;;;10.40;4.13;;;;;;;14.56;77.91;101187.78;5040740;28;20051;-70
2022/10/17 07:48:40;;;;;;;10.60;4.78;;;;;;;14.58;77.51;101192.19;5040642;28;20041;-70
2022/10/17 07:51:10;;;;;;;8.32;4.15;;;;;;;14.51;77.95;101190.28;5040207;28;20060;-70
2022/10/17 07:53:41;;;;;;;11.07;4.50;;;;;;;14.52;77.06;101204.16;5047456;28;20548;-70
2022/10/17 07:56:11;;;;;;;8.13;3.38;;;;;;;14.46;78.18;101195.38;5040512;28;20103;-71
2022/10/17 07:58:41;;;;;;;9.43;3.58;;;;;;;14.44;77.86;101204.88;5040006;28;20064;-70
2022/10/17 08:01:13;;;;;;;7.10;3.72;;;;;;;14.41;78.07;101199.63;5037589;28;20045;-71
2022/10/17 08:03:42;;;;;;;7.03;3.70;;;;;;;14.38;78.07;101207.34;5039704;28;20049;-70
2022/10/17 08:06:11;;;;;;;12.02;4.63;;;;;;;14.34;78.47;101208.16;5041126;28;20098;-70
2022/10/17 08:08:39;;;;;;;9.23;4.35;;;;;;;14.32;78.49;101206.38;5049828;28;20051;-71
2022/10/17 08:11:10;;;;;;;8.82;4.05;;;;;;;14.29;79.00;101209.75;5033296;28;20049;-72
2022/10/17 08:13:41;;;;;;;8.20;4.57;;;;;;;14.25;78.21;101203.63;5037397;28;20990;-71
2022/10/17 08:16:12;;;;;;;12.82;3.63;;;;;;;14.17;78.33;101214.69;5038501;28;20049;-71
2022/10/17 08:18:42;;;;;;;10.02;4.30;;;;;;;14.14;77.93;101223.31;5044833;28;20426;-71
2022/10/17 08:21:11;;;;;;;11.95;3.47;;;;;;;14.00;79.01;101215.22;5040318;28;20494;-70
2022/10/17 08:23:40;;;;;;;10.60;4.35;;;;;;;13.95;79.05;101229.84;5041481;28;20171;-70
2022/10/17 08:26:12;;;;;;;7.60;4.43;;;;;;;13.92;79.04;101234.94;5038354;28;20049;-70
2022/10/17 08:28:42;;;;;;;11.50;4.55;;;;;;;13.91;78.95;101243.63;5037832;28;20041;-70
2022/10/17 08:31:13;;;;;;;10.88;3.80;;;;;;;13.89;79.31;101245.31;5044994;28;20053;-70
2022/10/17 08:33:41;;;;;;;9.60;3.95;;;;;;;13.86;79.38;101242.63;5038351;28;20406;-71
2022/10/17 08:36:13;;;;;;;9.23;3.65;;;;;;;13.86;79.12;101245.25;5037267;28;20502;-70
2022/10/17 08:38:42;;;;;;;11.98;5.03;;;;;;;13.85;78.80;101245.19;5038840;28;20454;-71
2022/10/17 08:41:19;;;;;;;5.40;2.90;;;;;;;13.82;79.38;101243.41;5043337;28;20102;-71
2022/10/17 08:44:01;;;;;;;8.15;3.72;;;;;;;13.79;78.91;101253.75;5036254;28;20453;-71
2022/10/17 08:46:32;;;;;;;11.30;4.43;;;;;;;13.76;79.40;101266.66;5035327;28;20049;-71
2022/10/17 08:49:03;;;;;;;7.40;3.95;;;;;;;13.74;79.19;101265.72;5038137;28;20156;-71
2022/10/17 08:51:36;;;;;;;10.68;3.45;;;;;;;13.71;79.79;101263.06;5045088;28;20041;-71
2022/10/17 08:54:15;;;;;;;9.85;4.38;;;;;;;13.67;80.46;101258.63;5047974;28;20718;-71
2022/10/17 08:56:46;;;;;;;8.40;4.07;;;;;;;13.65;80.45;101257.69;5037578;28;20052;-71
2022/10/17 08:59:20;;;;;;;11.85;4.03;;;;;;;13.61;80.36;101265.44;5036729;28;20049;-71
2022/10/17 09:01:57;;;;;;;9.52;3.85;;;;;;;13.59;80.64;101266.25;5020471;28;20129;-70
2022/10/17 09:04:57;;;;;;;6.82;3.45;;;;;;;13.58;80.60;101264.47;5015978;28;20487;-71
2022/10/17 09:07:34;;;;;;;8.52;3.83;;;;;;;13.57;81.07;101267.91;5021799;28;20141;-70
2022/10/17 09:10:16;;;;;;;7.85;3.78;;;;;;;13.55;81.52;101270.47;5019938;28;20045;-70
2022/10/17 09:12:56;;;;;;;8.23;3.97;;;;;;;13.52;81.71;101273.00;5026551;28;20419;-71
2022/10/17 09:15:38;;;;;;;8.18;3.50;;;;;;;13.48;80.85;101281.56;5023263;28;20041;-71
2022/10/17 09:18:13;;;;;;;10.10;4.32;;;;;;;13.42;81.05;101281.38;5024107;28;20053;-71
2022/10/17 09:20:45;;;;;;;8.85;3.78;;;;;;;13.39;82.08;101284.78;5025162;28;20052;-70
2022/10/17 09:23:19;;;;;;;7.97;4.30;;;;;;;13.36;81.37;101281.25;5021886;28;20464;-70
2022/10/17 09:25:51;;;;;;;8.48;4.25;;;;;;;13.34;82.33;101282.91;5020492;28;20057;-71
2022/10/17 09:28:24;;;;;;;12.20;4.40;;;;;;;13.33;82.39;101288.94;5023376;28;20049;-70
2022/10/17 09:31:00;;;;;;;7.00;3.97;;;;;;;13.30;82.17;101284.53;5017699;28;20045;-71
2022/10/17 09:33:31;;;;;;;6.63;3.65;;;;;;;13.29;82.54;101284.53;5024724;28;20588;-70
2022/10/17 09:36:01;;;;;;;9.35;3.58;;;;;;;13.23;81.72;101289.50;5015031;28;20056;-71
2022/10/17 09:38:38;;;;;;;9.15;3.55;;;;;;;13.20;82.12;101295.50;5020090;28;20450;-71
2022/10/17 09:41:14;;;;;;;11.40;4.18;;;;;;;13.17;82.96;101285.91;5013896;28;20033;-71
2022/10/17 09:43:44;;;;;;;6.28;3.88;;;;;;;13.13;82.48;101298.78;5022549;28;20041;-71
2022/10/17 09:46:22;;;;;;;9.50;4.07;;;;;;;13.11;82.69;101293.53;5017810;28;20129;-71
2022/10/17 09:48:53;;;;;;;9.80;4.40;;;;;;;13.06;82.81;101287.34;5021127;28;20069;-71
2022/10/17 09:51:22;;;;;;;7.90;2.85;;;;;;;13.08;82.73;101288.25;5026436;28;20060;-71
2022/10/17 09:53:56;;;;;;;10.43;4.68;;;;;;;13.06;82.42;101287.34;5018347;28;20053;-71
2022/10/17 09:56:25;;;;;;;7.70;3.20;;;;;;;13.04;82.43;101288.13;5029502;28;20046;-71
2022/10/17 09:58:57;;;;;;;6.53;3.72;;;;;;;13.00;81.84;101297.53;5033570;28;20057;-70
2022/10/17 10:01:29;;;;;;;12.77;4.68;;;;;;;12.98;82.60;101294.03;5042668;28;20041;-71
2022/10/17 10:04:12;;;;;;;6.47;3.28;;;;;;;12.94;82.38;101287.88;5038910;28;20059;-71
2022/10/17 10:06:41;;;;;;;10.20;3.40;;;;;;;12.90;82.31;101288.63;5030779;28;20041;-71
2022/10/17 10:09:23;;;;;;;8.65;3.30;;;;;;;12.86;83.02;101285.91;5047901;28;20044;-71
2022/10/17 10:11:53;;;;;;;7.93;4.68;;;;;;;12.87;83.16;101287.63;5043602;28;20466;-71
2022/10/17 10:14:24;;;;;;;7.82;4.28;;;;;;;12.84;83.63;101283.25;5046078;28;20483;-70
2022/10/17 10:16:54;;;;;;;10.98;4.03;;;;;;;12.83;83.87;101293.56;5040365;28;20053;-71
2022/10/17 10:19:30;;;;;;;7.82;3.67;;;;;;;12.81;83.56;101282.28;5045184;28;20041;-70
2022/10/17 10:22:00;;;;;;;13.63;3.88;;;;;;;12.77;83.05;101283.91;5046465;28;20105;-70
2022/10/17 10:24:29;;;;;;;10.88;4.53;;;;;;;12.76;83.66;101284.75;5035044;28;20054;-69
2022/10/17 10:27:00;;;;;;;8.35;3.63;;;;;;;12.72;83.69;101288.97;5037957;28;20748;-70
2022/10/17 10:29:33;;;;;;;8.73;3.88;;;;;;;12.66;83.25;101293.97;5040524;28;20041;-70
2022/10/17 10:32:12;;;;;;;5.68;3.45;;;;;;;12.62;82.29;101301.63;5037628;28;20519;-70
2022/10/17 10:34:51;;;;;;;14.98;4.13;;;;;;;12.58;82.32;101296.34;5039423;28;20048;-70
2022/10/17 10:37:22;;;;;;;6.18;3.30;;;;;;;12.57;82.61;101299.78;5038445;28;20526;-72
2022/10/17 10:39:53;;;;;;;9.85;3.95;;;;;;;12.56;82.66;101297.13;5037484;28;20053;-71
2022/10/17 10:42:26;;;;;;;8.40;3.47;;;;;;;12.55;82.89;101290.16;5039948;28;20618;-70
2022/10/17 10:44:58;;;;;;;11.15;3.95;;;;;;;12.54;83.85;101298.81;5041344;28;20163;-70
2022/10/17 10:47:30;;;;;;;6.00;3.33;;;;;;;12.52;83.25;101292.69;5035230;28;20891;-70
2022/10/17 10:50:24;;;;;;;8.55;4.82;;;;;;;12.49;83.29;101290.00;5040543;28;20107;-70
2022/10/17 10:53:03;;;;;;;8.35;4.00;;;;;;;12.47;83.59;101292.53;5037556;28;20982;-71
2022/10/17 10:55:36;;;;;;;8.95;4.20;;;;;;;12.42;82.81;101286.34;5039885;28;20776;-70
2022/10/17 10:58:16;;;;;;;8.20;3.40;;;;;;;12.39;83.03;101291.41;5038000;28;20041;-69
2022/10/17 11:00:46;;;;;;;10.93;3.55;;;;;;;12.35;83.95;101277.50;5019781;28;20060;-70
2022/10/17 11:03:21;;;;;;;6.72;3.42;;;;;;;12.36;83.97;101273.16;5023328;28;20061;-70
2022/10/17 11:05:54;;;;;;;7.45;3.55;;;;;;;12.36;84.00;101283.56;5028848;28;20049;-69
2022/10/17 11:08:31;;;;;;;12.93;3.83;;;;;;;12.35;83.56;101287.88;5017139;28;20084;-70
2022/10/17 11:11:16;;;;;;;7.93;3.85;;;;;;;12.34;82.96;101286.09;5021709;28;20050;-71
2022/10/17 11:13:50;;;;;;;6.35;3.35;;;;;;;12.31;83.26;101282.53;5021130;28;20502;-70
2022/10/17 11:16:28;;;;;;;8.85;4.38;;;;;;;12.29;84.10;101282.47;5030539;28;20562;-70
2022/10/17 11:19:05;;;;;;;14.18;4.03;;;;;;;12.28;83.93;101277.25;5027946;28;20053;-71
2022/10/17 11:21:42;;;;;;;9.23;4.13;;;;;;;12.24;83.56;101284.06;5024355;28;20541;-70
2022/10/17 11:24:17;;;;;;;10.13;3.53;;;;;;;12.23;83.29;101284.00;5028538;28;20077;-71
2022/10/17 11:26:51;;;;;;;10.70;4.05;;;;;;;12.21;83.83;101291.75;5020876;28;20064;-71
2022/10/17 11:29:19;;;;;;;8.27;4.10;;;;;;;12.20;83.18;101292.56;5017327;28;20049;-71
2022/10/17 11:31:53;;;;;;;13.07;3.38;;;;;;;12.18;84.31;101289.03;5024198;28;20061;-70
2022/10/17 11:34:26;;;;;;;8.88;3.70;;;;;;;12.14;83.67;101284.63;5016200;28;20056;-71
2022/10/17 11:37:00;;;;;;;10.27;4.13;;;;;;;12.12;84.15;101283.69;5024527;28;20053;-71
2022/10/17 11:39:38;;;;;;;8.32;4.00;;;;;;;12.11;84.78;101289.69;5021977;28;20137;-71
2022/10/17 11:42:11;;;;;;;7.05;3.35;;;;;;;12.09;84.23;101289.63;5026644;28;20428;-70